Tiempo atmosférico en la estación meteorológica de Valle de Hecho, Hecho, Huesca (855 m.)



Fecha
DESCASC
Temp. máxima en grados centígrados (hora)
DESCASC
Temp. mínima en grados centígrados (hora)
DESCASC
Temp. media en grados centígrados
DESCASC
Racha de viento máxima en m/sg (hora)
DESCASC
Velocidad máxima media en intervalos de 10 minutos(hora)
DESCASC
Precipitaciones diarias en mm
DESCASC
Precipitaciones de 00:00 a 06:00 en mm
DESCASC
Precipitaciones de 06:00 a 12:00 en mm
DESCASC
Precipitaciones de 12:00 a 18:00 en mm
DESCASC
Precipitaciones de 18:00 a 24:00 en mm
DESCASC
13-10-2019 24.6 (15:20) 15.6 (08:10) 20.1 13.06 (11:00) 6.39 (16:00) 0 0 0 0 0
12-10-2019 25 (14:20) 13.8 (00:00) 19.4 11.39 (14:30) 6.39 (13:20) 0 0 0 0 0
11-10-2019 26.1 (16:10) 4.1 (06:40) 15.1 6.94 (13:50) 3.61 (13:40) 0 0 0 0 0
10-10-2019 21.5 (16:00) 2.1 (00:00) 11.8 5.56 (16:20) 2.78 (15:00) 0 0 0 0 0
09-10-2019 20.4 (15:20) 8.6 (00:00) 14.5 11.67 (19:30) 5.28 (16:40) 0 0 0 0 0
08-10-2019 26.6 (16:10) 8.8 (00:00) 17.7 6.11 (00:20) 3.06 (00:30) 0 0 0 0 0
07-10-2019 22.8 (15:00) 12.2 (00:00) 17.5 18.89 (08:30) 8.89 (12:00) 0 0 0 0 0
06-10-2019 21.9 (15:00) 4.6 (00:00) 13.2 11.67 (17:30) 7.22 (17:30) 0 0 0 0 0
05-10-2019 25.4 (16:10) 5 (00:00) 15.2 12.78 (01:10) 5.28 (18:40) 0 0 0 0 0
04-10-2019 24 (13:40) 4.2 (00:00) 14.1 9.17 (14:00) 5.28 (14:30) 0 0 0 0 0
03-10-2019 24.1 (16:50) 3.6 (00:00) 13.9 12.5 (17:00) 5.83 (17:20) 0 0 0 0 0
02-10-2019 18.6 (15:20) 11.1 (00:00) 14.9 16.94 (22:00) 6.11 (22:10) 0.2 0 0.2 0 0
01-10-2019 25.5 (15:00) 8.8 (00:00) 17.2 9.17 (15:50) 5.28 (15:50) 0 0 0 0 0
30-09-2019 27 (16:10) 7.5 (00:00) 17.3 6.39 (16:50) 3.06 (17:40) 0 0 0 0 0
29-09-2019 26.9 (16:00) 7.1 (00:00) 17 7.22 (15:30) 3.06 (14:20) 0 0 0 0 0
28-09-2019 24.8 (16:50) 6.6 (00:00) 15.7 7.22 (14:00) 4.17 (14:00) 0 0 0 0 0
27-09-2019 25 (15:50) 8.5 (00:00) 16.8 6.67 (16:00) 3.61 (20:20) 0 0 0 0 0
26-09-2019 25 (15:40) 9.3 (00:00) 17.2 6.11 (16:00) 3.33 (14:00) 0 0 0 0 0
25-09-2019 19.9 (15:30) 9.7 (00:00) 14.8 9.44 (16:40) 5.56 (16:40) 0 0 0 0 0
24-09-2019 24.3 (15:40) 8 (00:00) 16.1 7.22 (17:10) 3.33 (19:00) 0 0 0 0 0
23-09-2019 20.7 (16:50) 5.1 (00:00) 12.9 5 (14:40) 2.5 (14:20) 0 0 0 0 0
22-09-2019 18.7 (16:00) 9.2 (00:00) 14 8.06 (11:20) 3.89 (11:30) 13.2 1.6 11.6 0 0
21-09-2019 22.4 (15:20) 14.2 (00:00) 18.3 8.89 (15:50) 5 (15:40) 10.8 8.2 1.6 0 1
20-09-2019 25.8 (14:40) 11.2 (00:00) 18.5 11.67 (14:40) 5.56 (14:40) 0 0 0 0 0
19-09-2019 27 (16:50) 9.9 (00:00) 18.4 10.83 (14:40) 5.28 (15:10) 0 0 0 0 0
18-09-2019 27.6 (15:30) 13.5 (00:00) 20.6 7.78 (16:10) 3.61 (17:50) 0 0 0 0 0
17-09-2019 29.6 (14:40) 12.3 (00:00) 21 8.33 (16:30) 5.28 (15:00) 0 0 0 0 0
16-09-2019 28.2 (16:50) 13.4 (00:00) 20.8 7.5 (16:30) 3.61 (16:10) 0 0 0 0 0
15-09-2019 28.5 (14:30) 13.2 (00:00) 20.8 9.72 (16:50) 5.83 (16:40) 1.6 0 0 1.2 0.4

Gráficas

Temp. máximas Temp. mínimas Temp. medias Precipitaciones Rachas de viento máximas Velocidades máximas media en intervalos de 10 minutos

Datos horarios

Fecha y hora oficial Temperatura (ºC) Velocidad del viento (km/h) Dirección del viento Racha (km/h) Dirección de racha Precipitación (mm) Presión (hPa) Tendencia (hPa) Humedad (%)
2019-10-14 23:00:00 9.9 3 Noroeste 11 Norte 0 -- -- 90
2019-10-14 22:00:00 10.5 4 Sur 52 Oeste 6 -- -- 84
2019-10-14 21:00:00 13.1 6 Sudoeste 25 Sudoeste 0 -- -- 82
2019-10-14 20:00:00 12.9 6 Sudoeste 22 Sudoeste 0 -- -- 82
2019-10-14 19:00:00 14.4 8 Sur 27 Sudeste 0 -- -- 77
2019-10-14 18:00:00 14.6 12 Sur 35 Sur 2.2 -- -- 82
2019-10-14 17:00:00 14.4 9 Sur 32 Sudeste 4.8 -- -- 86
2019-10-14 16:00:00 16.4 15 Sudoeste 34 Sur 0 -- -- 69
2019-10-14 15:00:00 16.1 16 Sur 41 Sur 0 -- -- 71
2019-10-14 14:00:00 15 19 Sudeste 46 Sudeste 0.6 -- -- 77
2019-10-14 13:00:00 14.9 14 Sur 44 Sudoeste 3.8 -- -- 81
2019-10-14 12:00:00 16.9 12 Sur 42 Sudeste 1 -- -- 71
2019-10-14 11:00:00 19.4 21 Sur 46 Sur 0 -- -- 53
2019-10-14 10:00:00 19.5 19 Sur 52 Sur 0 -- -- 51
2019-10-14 09:00:00 19.1 15 Sur 33 Sudeste 0 -- -- 54
2019-10-14 08:00:00 19.4 15 Sur 39 Sudeste 0 -- -- 50
2019-10-14 07:00:00 19 16 Sur 38 Sur 0 -- -- 49
2019-10-14 06:00:00 18.8 17 Sudoeste 36 Sudoeste 0 -- -- 50
2019-10-14 05:00:00 18.1 18 Sudoeste 32 Sudoeste 0 -- -- 55
2019-10-14 04:00:00 17.4 15 Sudoeste 27 Sudoeste 0 -- -- 63
2019-10-14 03:00:00 17.8 7 Sur 38 Sudeste 0 -- -- 63
2019-10-14 02:00:00 18.4 13 Sudeste 27 Sur 0 -- -- 64
2019-10-14 01:00:00 18.8 13 Sur 33 Sur 0 -- -- 64
2019-10-14 00:00:00 19.1 16 Sur 40 Sudoeste 0 -- -- 64
2019-10-13 23:00:00 19.7 14 Sur 36 Sur 0 -- -- 62
2019-10-13 22:00:00 20.3 14 Sur 32 Sur 0 -- -- 58
2019-10-13 21:00:00 20.8 11 Sur 31 Sur 0 -- -- 53
2019-10-13 20:00:00 20.9 10 Sur 23 Sudoeste 0 -- -- 51
2019-10-13 19:00:00 22 15 Sudoeste 39 Sudoeste 0 -- -- 43
2019-10-13 18:00:00 23.5 18 Sudoeste 39 Sudoeste 0 -- -- 39
2019-10-13 17:00:00 24.3 19 Sur 44 Sur 0 -- -- 39
2019-10-13 16:00:00 24.1 23 Sudoeste 44 Sudoeste 0 -- -- 41
2019-10-13 15:00:00 24 15 Sur 40 Sur 0 -- -- 46
2019-10-13 14:00:00 22.1 20 Sudeste 42 Sudeste 0 -- -- 52
2019-10-13 13:00:00 21.5 18 Sur 37 Sudoeste 0 -- -- 54
2019-10-13 12:00:00 21.3 15 Sur 45 Sudoeste 0 -- -- 53
2019-10-13 11:00:00 20 22 Sur 47 Sudeste 0 -- -- 57
2019-10-13 10:00:00 18.9 19 Sur 36 Sur 0 -- -- 59
2019-10-13 09:00:00 16.3 17 Sudoeste 33 Sudoeste 0 -- -- 69
2019-10-13 08:00:00 15.9 12 Sudoeste 26 Oeste 0 -- -- 69
2019-10-13 07:00:00 17.1 13 Sudoeste 32 Sudoeste 0 -- -- 64
2019-10-13 06:00:00 17.4 13 Sudoeste 27 Oeste 0 -- -- 64
2019-10-13 05:00:00 17.8 12 Sur 30 Sur 0 -- -- 64
2019-10-13 04:00:00 17.8 14 Sur 30 Sudeste 0 -- -- 66
2019-10-13 03:00:00 17.7 8 Sur 27 Sur 0 -- -- 65
2019-10-13 02:00:00 19.3 13 Sur 35 Sur 0 -- -- 60
2019-10-13 01:00:00 19.1 14 Sudoeste 36 Sur 0 -- -- 63
2019-10-13 00:00:00 19.3 17 Sudoeste 28 Sudoeste 0 -- -- 63
2019-10-12 23:00:00 19.8 12 Sudoeste 27 Sudoeste 0 -- -- 60
2019-10-12 22:00:00 20.5 12 Sur 28 Sur 0 -- -- 56
2019-10-12 21:00:00 20.9 11 Sur 31 Sur 0 -- -- 54
2019-10-12 20:00:00 21.4 12 Sur 33 Sur 0 -- -- 53
2019-10-12 19:00:00 21.9 11 Sur 34 Sur 0 -- -- 52
2019-10-12 18:00:00 22.6 17 Sur 37 Sur 0 -- -- 50
2019-10-12 17:00:00 23.2 10 Sur 36 Sur 0 -- -- 47
2019-10-12 16:00:00 23.8 17 Sur 38 Sudeste 0 -- -- 47
2019-10-12 15:00:00 24.3 12 Sur 41 Sudoeste 0 -- -- 48
2019-10-12 14:00:00 23.7 12 Sur 39 Sur 0 -- -- 49
2019-10-12 13:00:00 23.4 19 Sudoeste 36 Sudoeste 0 -- -- 50
2019-10-12 12:00:00 21.4 10 Sudoeste 23 Sudoeste 0 -- -- 58
2019-10-12 11:00:00 20.3 13 Sudoeste 23 Sudoeste 0 -- -- 60
2019-10-12 10:00:00 18.5 14 Sudoeste 26 Sudoeste 0 -- -- 67
2019-10-12 09:00:00 17.8 12 Sudoeste 26 Sudoeste 0 -- -- 70
2019-10-12 08:00:00 17.7 12 Sudoeste 29 Sudoeste 0 -- -- 70
2019-10-12 07:00:00 18.1 14 Sudoeste 27 Sudoeste 0 -- -- 68
2019-10-12 06:00:00 18.5 7 Sur 19 Sur 0 -- -- 65
2019-10-12 05:00:00 19.7 9 Sur 28 Sur 0 -- -- 60
2019-10-12 04:00:00 19.4 10 Sur 28 Sur 0 -- -- 63
2019-10-12 03:00:00 18.1 8 Sudoeste 21 Sur 0 -- -- 67
2019-10-12 02:00:00 16.2 6 Sudoeste 14 Sudoeste 0 -- -- 72
2019-10-12 01:00:00 14 2 Este 6 Este 0 -- -- 75
2019-10-12 00:00:00 13.8 3 Oeste 6 Nordeste 0 -- -- 75
2019-10-11 23:00:00 14.5 0 Calma 6 Este 0 -- -- 72
2019-10-11 22:00:00 15.5 3 Norte 7 Nordeste 0 -- -- 67
2019-10-11 21:00:00 17.4 0 Calma 4 Oeste 0 -- -- 61
2019-10-11 20:00:00 19.5 0 Calma 5 Nordeste 0 -- -- 54
2019-10-11 19:00:00 22.7 4 Oeste 17 Sudoeste 0 -- -- 45
2019-10-11 18:00:00 25.3 7 Sudoeste 16 Sudoeste 0 -- -- 40
2019-10-11 17:00:00 25.7 6 Sur 21 Sudoeste 0 -- -- 39
2019-10-11 16:00:00 25.8 9 Sur 18 Sudoeste 0 -- -- 39
2019-10-11 15:00:00 25.5 11 Sudoeste 21 Sudoeste 0 -- -- 40
2019-10-11 14:00:00 25.3 11 Sur 25 Sudoeste 0 -- -- 40
2019-10-11 13:00:00 24.4 9 Sudoeste 19 Sudoeste 0 -- -- 40
2019-10-11 12:00:00 19.5 3 Este 8 Nordeste 0 -- -- 42
2019-10-11 11:00:00 14 3 Este 5 Nordeste 0 -- -- 61
2019-10-11 10:00:00 8.7 2 Este 4 Este 0 -- -- 72
2019-10-11 09:00:00 4.7 0 Calma 3 Oeste 0 -- -- 83
2019-10-11 08:00:00 4.3 2 Sudeste 5 Este 0 -- -- 83
2019-10-11 07:00:00 4.2 0 Calma 4 Oeste 0 -- -- 83
2019-10-11 06:00:00 4.5 0 Calma 4 Oeste 0 -- -- 81
2019-10-11 05:00:00 4.7 0 Calma 4 Sudoeste 0 -- -- 80
2019-10-11 04:00:00 5.2 0 Calma 5 Sudoeste 0 -- -- 77
2019-10-11 03:00:00 5.2 0 Calma 4 Sudoeste 0 -- -- 76
2019-10-11 02:00:00 5.7 0 Calma 5 Sudoeste 0 -- -- 74
2019-10-11 01:00:00 6.3 3 Sudoeste 6 Nordeste 0 -- -- 72
2019-10-11 00:00:00 7.2 0 Calma 4 Oeste 0 -- -- 68
2019-10-10 23:00:00 8.5 0 Calma 5 Noroeste 0 -- -- 60
2019-10-10 22:00:00 9.9 0 Calma 4 Sudoeste 0 -- -- 54
2019-10-10 21:00:00 11.5 0 Calma 9 Norte 0 -- -- 50
2019-10-10 20:00:00 14.2 2 Oeste 8 Nordeste 0 -- -- 40
2019-10-10 19:00:00 18 4 Nordeste 12 Sudoeste 0 -- -- 30
2019-10-10 18:00:00 21.3 7 Sudoeste 13 Sudoeste 0 -- -- 24
2019-10-10 17:00:00 21.5 6 Sur 20 Sudeste 0 -- -- 24
2019-10-10 16:00:00 21.5 8 Sur 19 Sudoeste 0 -- -- 28
2019-10-10 15:00:00 21 10 Sur 19 Sur 0 -- -- 34
2019-10-10 14:00:00 20.1 9 Sur 19 Sur 0 -- -- 41
2019-10-10 13:00:00 18.4 6 Sudoeste 11 Sudoeste 0 -- -- 46
2019-10-10 12:00:00 14.8 5 Sudeste 8 Sur 0 -- -- 54
2019-10-10 11:00:00 10.2 3 Este 8 Este 0 -- -- 65
2019-10-10 10:00:00 5.7 6 Nordeste 9 Nordeste 0 -- -- 87
2019-10-10 09:00:00 2.3 2 Sudoeste 4 Sudoeste 0 -- -- 92
2019-10-10 08:00:00 2.4 0 Calma 4 Sudoeste 0 -- -- 92
2019-10-10 07:00:00 2.8 0 Calma 5 Sudoeste 0 -- -- 91
2019-10-10 06:00:00 3.2 0 Calma 5 Nordeste 0 -- -- 92
2019-10-10 05:00:00 3.8 2 Sudoeste 6 Oeste 0 -- -- 90
2019-10-10 04:00:00 4.5 4 Sudoeste 8 Norte 0 -- -- 90
2019-10-10 03:00:00 5.4 2 Oeste 6 Noroeste 0 -- -- 90
2019-10-10 02:00:00 6.1 0 Calma 6 Sudoeste 0 -- -- 87
2019-10-10 01:00:00 7.1 3 Oeste 6 Sur 0 -- -- 84
2019-10-10 00:00:00 8.6 3 Sudeste 8 Sudoeste 0 -- -- 79
2019-10-09 23:00:00 9.6 3 Oeste 11 Nordeste 0 -- -- 74
2019-10-09 22:00:00 10.9 4 Norte 17 Noroeste 0 -- -- 70
2019-10-09 21:00:00 12.9 9 Norte 31 Norte 0 -- -- 63
2019-10-09 20:00:00 13.8 18 Noroeste 42 Noroeste 0 -- -- 61
2019-10-09 19:00:00 15.1 18 Noroeste 35 Noroeste 0 -- -- 58
2019-10-09 18:00:00 17.2 12 Noroeste 31 Nordeste 0 -- -- 55
2019-10-09 17:00:00 19.4 13 Noroeste 31 Noroeste 0 -- -- 49
2019-10-09 16:00:00 20 17 Oeste 29 Oeste 0 -- -- 48
2019-10-09 15:00:00 20.2 17 Oeste 33 Oeste 0 -- -- 48
2019-10-09 14:00:00 20.1 14 Oeste 27 Sudoeste 0 -- -- 51
2019-10-09 13:00:00 20 9 Oeste 21 Oeste 0 -- -- 55
2019-10-09 12:00:00 18.3 7 Sudoeste 17 Sudoeste 0 -- -- 63
2019-10-09 11:00:00 14.8 2 Este 10 Oeste 0 -- -- 76
2019-10-09 10:00:00 11.8 3 Sudeste 8 Sudeste 0 -- -- 86
2019-10-09 09:00:00 10 4 Nordeste 8 Noroeste 0 -- -- 90
2019-10-09 08:00:00 9.1 2 Este 10 Noroeste 0 -- -- 90
2019-10-09 07:00:00 8.9 3 Sudoeste 10 Noroeste 0 -- -- 91
2019-10-09 06:00:00 8.8 3 Sudoeste 6 Sudoeste 0 -- -- 90
2019-10-09 05:00:00 9 0 Calma 9 Noroeste 0 -- -- 89
2019-10-09 04:00:00 9.9 0 Calma 4 Oeste 0 -- -- 84
2019-10-09 03:00:00 10 3 Nordeste 6 Nordeste 0 -- -- 85
2019-10-09 02:00:00 11.4 0 Calma 4 Oeste 0 -- -- 78
2019-10-09 01:00:00 12.3 0 Calma 4 Oeste 0 -- -- 75
2019-10-09 00:00:00 13.7 0 Calma 4 Oeste 0 -- -- 70
2019-10-08 23:00:00 15.1 0 Calma 5 Noroeste 0 -- -- 64
2019-10-08 22:00:00 16.1 0 Calma 4 Nordeste 0 -- -- 61
2019-10-08 21:00:00 17.4 0 Calma 13 Norte 0 -- -- 58
2019-10-08 20:00:00 19.5 6 Nordeste 13 Oeste 0 -- -- 50
2019-10-08 19:00:00 24.1 7 Oeste 16 Oeste 0 -- -- 37
2019-10-08 18:00:00 26.2 6 Sudoeste 14 Sur 0 -- -- 34
2019-10-08 17:00:00 26.5 6 Sur 16 Sudeste 0 -- -- 38
2019-10-08 16:00:00 26.5 6 Sur 16 Sur 0 -- -- 41
2019-10-08 15:00:00 26.1 8 Sudoeste 21 Sudeste 0 -- -- 43
2019-10-08 14:00:00 25 5 Sur 18 Sur 0 -- -- 46
2019-10-08 13:00:00 24.3 8 Sur 18 Sur 0 -- -- 48
2019-10-08 12:00:00 21.8 6 Sudeste 10 Sur 0 -- -- 56
2019-10-08 11:00:00 17.5 4 Este 6 Sudeste 0 -- -- 70
2019-10-08 10:00:00 13.2 3 Este 11 Nordeste 0 -- -- 81
2019-10-08 09:00:00 9.1 0 Calma 8 Nordeste 0 -- -- 91
2019-10-08 08:00:00 8.8 3 Nordeste 8 Noroeste 0 -- -- 91
2019-10-08 07:00:00 9.5 0 Calma 5 Oeste 0 -- -- 88
2019-10-08 06:00:00 9.8 0 Calma 6 Oeste 0 -- -- 87
2019-10-08 05:00:00 10.5 2 Norte 8 Noroeste 0 -- -- 87
2019-10-08 04:00:00 11.5 3 Noroeste 6 Nordeste 0 -- -- 81
2019-10-08 03:00:00 12.2 2 Oeste 10 Sudoeste 0 -- -- 79
2019-10-08 02:00:00 13.9 3 Oeste 10 Sudoeste 0 -- -- 72
2019-10-08 01:00:00 15.8 7 Oeste 22 Sudoeste 0 -- -- 67
2019-10-08 00:00:00 19.7 12 Norte 44 Norte 0 -- -- 61
2019-10-07 23:00:00 19.5 14 Norte 45 Nordeste 0 -- -- 60
2019-10-07 22:00:00 19.4 16 Norte 38 Nordeste 0 -- -- 61
2019-10-07 21:00:00 19.1 15 Norte 37 Norte 0 -- -- 59
2019-10-07 20:00:00 19.1 19 Norte 47 Nordeste 0 -- -- 56
2019-10-07 19:00:00 20.3 20 Nordeste 42 Nordeste 0 -- -- 50
2019-10-07 18:00:00 20.8 21 Nordeste 40 Nordeste 0 -- -- 47
2019-10-07 17:00:00 21.6 24 Nordeste 46 Norte 0 -- -- 43
2019-10-07 16:00:00 21.8 25 Nordeste 44 Nordeste 0 -- -- 35
2019-10-07 15:00:00 22.8 17 Nordeste 46 Nordeste 0 -- -- 31
2019-10-07 14:00:00 21.6 18 Norte 51 Nordeste 0 -- -- 27
2019-10-07 13:00:00 20 22 Norte 51 Nordeste 0 -- -- 20
2019-10-07 12:00:00 18.2 32 Nordeste 58 Norte 0 -- -- 20
2019-10-07 11:00:00 16.8 29 Nordeste 53 Nordeste 0 -- -- 22
2019-10-07 10:00:00 14.7 25 Norte 62 Norte 0 -- -- 30
2019-10-07 09:00:00 13.4 22 Norte 68 Nordeste 0 -- -- 35
2019-10-07 08:00:00 13.2 26 Norte 63 Norte 0 -- -- 32
2019-10-07 07:00:00 13.2 17 Norte 44 Nordeste 0 -- -- 34
2019-10-07 06:00:00 13.1 19 Norte 51 Nordeste 0 -- -- 39
2019-10-07 05:00:00 12.5 24 Nordeste 53 Nordeste 0 -- -- 48
2019-10-07 04:00:00 12.3 26 Nordeste 52 Nordeste 0 -- -- 50
2019-10-07 03:00:00 12.2 26 Nordeste 51 Nordeste 0 -- -- 48
2019-10-07 02:00:00 12.6 20 Norte 54 Nordeste 0 -- -- 43
2019-10-07 01:00:00 12.7 28 Nordeste 52 Norte 0 -- -- 43
2019-10-07 00:00:00 13.4 16 Norte 42 Norte 0 -- -- 44
2019-10-06 23:00:00 13.3 14 Noroeste 30 Nordeste 0 -- -- 53
2019-10-06 22:00:00 13.5 13 Noroeste 33 Norte 0 -- -- 56
2019-10-06 21:00:00 14.1 12 Noroeste 29 Norte 0 -- -- 54
2019-10-06 20:00:00 14.5 15 Noroeste 36 Norte 0 -- -- 59
2019-10-06 19:00:00 16.1 17 Noroeste 34 Norte 0 -- -- 56
2019-10-06 18:00:00 18.1 23 Noroeste 42 Noroeste 0 -- -- 48
2019-10-06 17:00:00 20.1 18 Noroeste 31 Noroeste 0 -- -- 43
2019-10-06 16:00:00 20.4 19 Noroeste 38 Oeste 0 -- -- 49
2019-10-06 15:00:00 21.9 8 Norte 30 Noroeste 0 -- -- 47
2019-10-06 14:00:00 19.5 6 Oeste 18 Oeste 0 -- -- 56
2019-10-06 13:00:00 16.3 3 Sudeste 10 Nordeste 0 -- -- 61
2019-10-06 12:00:00 15.2 5 Sudeste 10 Sudeste 0 -- -- 66
2019-10-06 11:00:00 11.7 4 Sur 8 Sur 0 -- -- 76
2019-10-06 10:00:00 8 0 Calma 6 Oeste 0 -- -- 87
2019-10-06 09:00:00 5.3 4 Norte 8 Oeste 0 -- -- 93
2019-10-06 08:00:00 5 2 Sudoeste 6 Noroeste 0 -- -- 90
2019-10-06 07:00:00 5.5 2 Sudoeste 8 Noroeste 0 -- -- 89
2019-10-06 06:00:00 6.1 0 Calma 6 Norte 0 -- -- 86
2019-10-06 05:00:00 6.2 3 Nordeste 12 Noroeste 0 -- -- 86
2019-10-06 04:00:00 6.7 5 Nordeste 11 Nordeste 0 -- -- 84
2019-10-06 03:00:00 7.5 4 Oeste 7 Oeste 0 -- -- 85
2019-10-06 02:00:00 8.6 0 Calma 6 Noroeste 0 -- -- 77
2019-10-06 01:00:00 10.3 2 Este 5 Nordeste 0 -- -- 69
2019-10-06 00:00:00 11.2 0 Calma 4 Noroeste 0 -- -- 67
2019-10-05 23:00:00 12.4 0 Calma 6 Sudoeste 0 -- -- 63
2019-10-05 22:00:00 14.1 0 Calma 6 Noroeste 0 -- -- 55
2019-10-05 21:00:00 16.8 2 Sur 12 Noroeste 0 -- -- 52
2019-10-05 20:00:00 18.5 5 Nordeste 14 Noroeste 0 -- -- 45
2019-10-05 19:00:00 22 9 Noroeste 31 Noroeste 0 -- -- 41
2019-10-05 18:00:00 24.3 16 Oeste 26 Oeste 0 -- -- 38
2019-10-05 17:00:00 25.2 9 Oeste 20 Oeste 0 -- -- 38
2019-10-05 16:00:00 25.2 9 Sur 23 Sudoeste 0 -- -- 39
2019-10-05 15:00:00 24 5 Sudeste 16 Sur 0 -- -- 42
2019-10-05 14:00:00 22.9 7 Sur 15 Sur 0 -- -- 42
2019-10-05 13:00:00 20.5 7 Sur 13 Sudeste 0 -- -- 47
2019-10-05 12:00:00 17.7 5 Sudeste 9 Sur 0 -- -- 54
2019-10-05 11:00:00 12.8 8 Nordeste 12 Nordeste 0 -- -- 71
2019-10-05 10:00:00 8.7 5 Nordeste 10 Nordeste 0 -- -- 82
2019-10-05 09:00:00 5.4 0 Calma 4 Sudoeste 0 -- -- 92
2019-10-05 08:00:00 5.2 0 Calma 4 Sur 0 -- -- 90
2019-10-05 07:00:00 6 2 Sudoeste 5 Oeste 0 -- -- 90
2019-10-05 06:00:00 6.6 5 Sudoeste 8 Sudoeste 0 -- -- 89
2019-10-05 05:00:00 7.5 2 Sur 7 Oeste 0 -- -- 86
2019-10-05 04:00:00 8.6 2 Norte 10 Sudoeste 0 -- -- 83
2019-10-05 03:00:00 10.3 0 Calma 11 Noroeste 0 -- -- 77
2019-10-05 02:00:00 13.8 6 Noroeste 46 Nordeste 0 -- -- 59
2019-10-05 01:00:00 15.3 16 Norte 35 Norte 0 -- -- 58
2019-10-05 00:00:00 13.7 12 Nordeste 32 Nordeste 0 -- -- 69
2019-10-04 23:00:00 13.6 5 Nordeste 30 Noroeste 0 -- -- 72
2019-10-04 22:00:00 14.9 16 Noroeste 24 Noroeste 0 -- -- 68
2019-10-04 21:00:00 15.3 3 Sudeste 17 Noroeste 0 -- -- 71
2019-10-04 20:00:00 17.6 11 Noroeste 27 Oeste 0 -- -- 63
2019-10-04 19:00:00 20 6 Noroeste 19 Sudoeste 0 -- -- 51
2019-10-04 18:00:00 21.8 10 Oeste 30 Oeste 0 -- -- 50
2019-10-04 17:00:00 22.3 19 Oeste 33 Oeste 0 -- -- 49
2019-10-04 16:00:00 23.2 19 Oeste 33 Oeste 0 -- -- 47
2019-10-04 15:00:00 23.5 18 Oeste 33 Oeste 0 -- -- 44
2019-10-04 14:00:00 23.7 19 Oeste 33 Oeste 0 -- -- 44
2019-10-04 13:00:00 23.4 10 Nordeste 28 Noroeste 0 -- -- 44
2019-10-04 12:00:00 20.8 4 Sur 12 Sudoeste 0 -- -- 53
2019-10-04 11:00:00 15.2 6 Sudoeste 12 Sudoeste 0 -- -- 60
2019-10-04 10:00:00 9.9 3 Este 7 Este 0 -- -- 66
2019-10-04 09:00:00 5.7 2 Norte 6 Este 0 -- -- 82
2019-10-04 08:00:00 4.4 4 Oeste 8 Oeste 0 -- -- 82
2019-10-04 07:00:00 4.5 2 Noroeste 9 Oeste 0 -- -- 80
2019-10-04 06:00:00 4.9 0 Calma 8 Nordeste 0 -- -- 79
2019-10-04 05:00:00 5.2 2 Nordeste 6 Sudoeste 0 -- -- 76
2019-10-04 04:00:00 5.9 2 Oeste 8 Noroeste 0 -- -- 72
2019-10-04 03:00:00 7.2 3 Sudoeste 8 Oeste 0 -- -- 67
2019-10-04 02:00:00 7.5 2 Oeste 12 Sudoeste 0 -- -- 64
2019-10-04 01:00:00 8.8 5 Sudoeste 10 Sudoeste 0 -- -- 59
2019-10-04 00:00:00 10.5 3 Norte 6 Nordeste 0 -- -- 52
2019-10-03 23:00:00 11.6 0 Calma 7 Sudeste 0 -- -- 49
2019-10-03 22:00:00 14 5 Este 14 Noroeste 0 -- -- 42
2019-10-03 21:00:00 17 4 Nordeste 26 Norte 0 -- -- 31
2019-10-03 20:00:00 18.4 9 Norte 38 Oeste 0 -- -- 25
2019-10-03 19:00:00 20.3 14 Noroeste 27 Noroeste 0 -- -- 21
2019-10-03 18:00:00 22.3 20 Noroeste 44 Oeste 0 -- -- 14
2019-10-03 17:00:00 23.9 19 Noroeste 45 Noroeste 0 -- -- 13
2019-10-03 16:00:00 23.9 17 Oeste 32 Oeste 0 -- -- 25
2019-10-03 15:00:00 23.5 14 Sudoeste 26 Sudoeste 0 -- -- 30
2019-10-03 14:00:00 21.3 10 Sur 22 Sudoeste 0 -- -- 41
2019-10-03 13:00:00 18.2 5 Sudeste 10 Sudeste 0 -- -- 47
2019-10-03 12:00:00 15.3 4 Sur 9 Este 0 -- -- 53
2019-10-03 11:00:00 11.7 4 Este 8 Nordeste 0 -- -- 66
2019-10-03 10:00:00 7.2 0 Calma 5 Este 0 -- -- 78
2019-10-03 09:00:00 4.1 2 Este 6 Oeste 0 -- -- 91
2019-10-03 08:00:00 3.9 2 Sudoeste 7 Nordeste 0 -- -- 90
2019-10-03 07:00:00 4.4 0 Calma 6 Oeste 0 -- -- 88
2019-10-03 06:00:00 5.3 3 Oeste 6 Oeste 0 -- -- 84
2019-10-03 05:00:00 6.3 2 Sudoeste 7 Sudoeste 0 -- -- 81
2019-10-03 04:00:00 7.4 5 Sudoeste 14 Sudoeste 0 -- -- 78
2019-10-03 03:00:00 10 8 Sudoeste 31 Nordeste 0 -- -- 67
2019-10-03 02:00:00 12.7 19 Nordeste 42 Nordeste 0 -- -- 55
2019-10-03 01:00:00 13 16 Noroeste 43 Nordeste 0 -- -- 55
2019-10-03 00:00:00 13.2 15 Noroeste 42 Nordeste 0 -- -- 57
2019-10-02 23:00:00 13.4 15 Norte 53 Nordeste 0 -- -- 59
2019-10-02 22:00:00 13.7 21 Norte 61 Norte 0 -- -- 61
2019-10-02 21:00:00 14.3 16 Norte 44 Norte 0 -- -- 62
2019-10-02 20:00:00 14.6 15 Noroeste 40 Noroeste 0 -- -- 60
2019-10-02 19:00:00 15.1 16 Norte 40 Nordeste 0 -- -- 59
2019-10-02 18:00:00 16.4 13 Norte 36 Nordeste 0 -- -- 56
2019-10-02 17:00:00 16.4 12 Norte 35 Nordeste 0 -- -- 55
2019-10-02 16:00:00 17.1 15 Norte 34 Nordeste 0 -- -- 56
2019-10-02 15:00:00 18.2 14 Nordeste 34 Noroeste 0 -- -- 47
2019-10-02 14:00:00 17.5 14 Nordeste 29 Nordeste 0 -- -- 53
2019-10-02 13:00:00 17 15 Nordeste 28 Nordeste 0 -- -- 58
2019-10-02 12:00:00 16.5 15 Norte 32 Noroeste 0 -- -- 55
2019-10-02 11:00:00 14.4 7 Norte 29 Noroeste 0 -- -- 76
2019-10-02 10:00:00 12.5 8 Norte 31 Noroeste 0.2 -- -- 86
2019-10-02 09:00:00 11.2 14 Noroeste 31 Noroeste 0 -- -- 89
2019-10-02 08:00:00 11.5 13 Noroeste 25 Oeste 0 -- -- 82
2019-10-02 07:00:00 12.7 3 Norte 18 Noroeste 0 -- -- 71
2019-10-02 06:00:00 13.1 8 Noroeste 20 Noroeste 0 -- -- 67
2019-10-02 05:00:00 13.2 13 Noroeste 31 Noroeste 0 -- -- 66
2019-10-02 04:00:00 13.8 19 Noroeste 39 Noroeste 0 -- -- 60
2019-10-02 03:00:00 13.9 13 Noroeste 22 Noroeste 0 -- -- 57
2019-10-02 02:00:00 14.4 10 Noroeste 21 Oeste 0 -- -- 61
2019-10-02 01:00:00 14.2 10 Noroeste 31 Noroeste 0 -- -- 61
2019-10-02 00:00:00 14.7 19 Noroeste 28 Noroeste 0 -- -- 61
2019-10-01 23:00:00 16.2 11 Noroeste 26 Norte 0 -- -- 50
2019-10-01 22:00:00 14.7 2 Norte 23 Oeste 0 -- -- 57
2019-10-01 21:00:00 15.8 13 Noroeste 26 Noroeste 0 -- -- 61
2019-10-01 20:00:00 17.6 13 Noroeste 22 Noroeste 0 -- -- 53
2019-10-01 19:00:00 19.7 8 Noroeste 28 Nordeste 0 -- -- 50
2019-10-01 18:00:00 21.9 10 Norte 28 Nordeste 0 -- -- 42
2019-10-01 17:00:00 22.8 9 Nordeste 32 Noroeste 0 -- -- 43
2019-10-01 16:00:00 22.2 12 Noroeste 33 Oeste 0 -- -- 52
2019-10-01 15:00:00 25.5 11 Sudoeste 28 Oeste 0 -- -- 42
2019-10-01 14:00:00 25.2 7 Sudoeste 27 Oeste 0 -- -- 42
2019-10-01 13:00:00 24.5 9 Oeste 24 Noroeste 0 -- -- 42
2019-10-01 12:00:00 23.8 7 Sudoeste 13 Sudoeste 0 -- -- 41
2019-10-01 11:00:00 18 4 Este 8 Este 0 -- -- 60
2019-10-01 10:00:00 13.5 0 Calma 4 Nordeste 0 -- -- 76
2019-10-01 09:00:00 9.5 0 Calma 3 Sudoeste 0 -- -- 91
2019-10-01 08:00:00 9 0 Calma 3 Nordeste 0 -- -- 90
2019-10-01 07:00:00 9.1 2 Norte 4 Noroeste 0 -- -- 91
2019-10-01 06:00:00 9.1 0 Calma 4 Noroeste 0 -- -- 88
2019-10-01 05:00:00 9.5 0 Calma 4 Noroeste 0 -- -- 89
2019-10-01 04:00:00 10.2 0 Calma 3 Sur 0 -- -- 85
2019-10-01 03:00:00 10.8 0 Calma 3 Noroeste 0 -- -- 83
2019-10-01 02:00:00 11.5 0 Calma 5 Oeste 0 -- -- 82
2019-10-01 01:00:00 12.3 0 Calma 3 Sur 0 -- -- 79
2019-10-01 00:00:00 13.2 0 Calma 4 Oeste 0 -- -- 77
2019-09-30 23:00:00 14.4 0 Calma 5 Nordeste 0 -- -- 72
2019-09-30 22:00:00 16.2 2 Norte 5 Noroeste 0 -- -- 66
2019-09-30 21:00:00 18 0 Calma 6 Sur 0 -- -- 60
2019-09-30 20:00:00 21.1 2 Este 11 Sudoeste 0 -- -- 50
2019-09-30 19:00:00 24.6 5 Sudoeste 18 Sudoeste 0 -- -- 40
2019-09-30 18:00:00 26.3 6 Sur 22 Sudoeste 0 -- -- 37
2019-09-30 17:00:00 26.7 8 Sudoeste 23 Sur 0 -- -- 34
2019-09-30 16:00:00 26.7 8 Sur 17 Sur 0 -- -- 33
2019-09-30 15:00:00 26.5 6 Sur 19 Sur 0 -- -- 34
2019-09-30 14:00:00 26.4 10 Sudoeste 22 Sudoeste 0 -- -- 34
2019-09-30 13:00:00 25.3 9 Sur 18 Sur 0 -- -- 36
2019-09-30 12:00:00 22.4 3 Sur 8 Este 0 -- -- 47
2019-09-30 11:00:00 17 4 Este 6 Nordeste 0 -- -- 60
2019-09-30 10:00:00 12.2 0 Calma 3 Este 0 -- -- 77
2019-09-30 09:00:00 8.4 0 Calma 2 Sudoeste 0 -- -- 91
2019-09-30 08:00:00 7.7 0 Calma 3 Sudoeste 0 -- -- 88
2019-09-30 07:00:00 8 0 Calma 3 Oeste 0 -- -- 87
2019-09-30 06:00:00 8.6 0 Calma 5 Nordeste 0 -- -- 88
2019-09-30 05:00:00 8.5 0 Calma 8 Sudoeste 0 -- -- 87
2019-09-30 04:00:00 9.6 0 Calma 2 Este 0 -- -- 82
2019-09-30 03:00:00 9.9 0 Calma 5 Sur 0 -- -- 81
2019-09-30 02:00:00 10.9 2 Nordeste 4 Nordeste 0 -- -- 77
2019-09-30 01:00:00 11.7 0 Calma 2 Sudeste 0 -- -- 75
2019-09-30 00:00:00 12.7 0 Calma 5 Sudoeste 0 -- -- 69
2019-09-29 23:00:00 14.1 0 Calma 5 Sudeste 0 -- -- 64
2019-09-29 22:00:00 15.3 3 Noroeste 9 Norte 0 -- -- 58
2019-09-29 21:00:00 17.6 3 Sur 16 Norte 0 -- -- 53
2019-09-29 20:00:00 19.9 2 Oeste 11 Noroeste 0 -- -- 45
2019-09-29 19:00:00 23.8 6 Noroeste 18 Sudoeste 0 -- -- 34
2019-09-29 18:00:00 26.2 7 Sudoeste 25 Oeste 0 -- -- 28
2019-09-29 17:00:00 26.8 6 Oeste 19 Oeste 0 -- -- 23
2019-09-29 16:00:00 26.9 11 Oeste 26 Oeste 0 -- -- 20
2019-09-29 15:00:00 26.6 4 Oeste 23 Sudoeste 0 -- -- 28
2019-09-29 14:00:00 26.2 10 Sur 23 Sur 0 -- -- 31
2019-09-29 13:00:00 25.6 8 Sudoeste 18 Sudoeste 0 -- -- 31
2019-09-29 12:00:00 22.3 3 Sur 6 Sur 0 -- -- 48
2019-09-29 11:00:00 16.9 3 Este 9 Nordeste 0 -- -- 68
2019-09-29 10:00:00 12.4 3 Este 4 Nordeste 0 -- -- 80
2019-09-29 09:00:00 8.1 0 Calma 4 Este 0 -- -- 94
2019-09-29 08:00:00 7.3 2 Norte 5 Sudoeste 0 -- -- 91
2019-09-29 07:00:00 7.5 2 Noroeste 5 Nordeste 0 -- -- 91
2019-09-29 06:00:00 7.9 2 Oeste 5 Sudoeste 0 -- -- 92
2019-09-29 05:00:00 8.3 2 Sudoeste 4 Sudoeste 0 -- -- 90
2019-09-29 04:00:00 8.6 0 Calma 5 Este 0 -- -- 90
2019-09-29 03:00:00 9.1 0 Calma 6 Nordeste 0 -- -- 88
2019-09-29 02:00:00 9.9 0 Calma 3 Noroeste 0 -- -- 87
2019-09-29 01:00:00 10.8 0 Calma 5 Sudoeste 0 -- -- 82
2019-09-29 00:00:00 11.6 0 Calma 6 Sudoeste 0 -- -- 80
2019-09-28 23:00:00 12.8 0 Calma 6 Nordeste 0 -- -- 78
2019-09-28 22:00:00 14.1 2 Norte 8 Sur 0 -- -- 74
2019-09-28 21:00:00 16.2 2 Sudoeste 6 Sur 0 -- -- 66
2019-09-28 20:00:00 19 2 Nordeste 12 Sudoeste 0 -- -- 55
2019-09-28 19:00:00 22.1 6 Sudoeste 14 Sudoeste 0 -- -- 45
2019-09-28 18:00:00 24.3 8 Sudoeste 23 Sur 0 -- -- 40
2019-09-28 17:00:00 24.7 9 Sudoeste 23 Sudoeste 0 -- -- 39
2019-09-28 16:00:00 24.5 9 Sur 19 Sudoeste 0 -- -- 38
2019-09-28 15:00:00 23.9 10 Sudeste 23 Sudoeste 0 -- -- 36
2019-09-28 14:00:00 24.1 15 Sudoeste 26 Sur 0 -- -- 38
2019-09-28 13:00:00 23.2 12 Sudoeste 22 Sudoeste 0 -- -- 41
2019-09-28 12:00:00 20.5 5 Sudoeste 9 Sudoeste 0 -- -- 53
2019-09-28 11:00:00 15.3 5 Este 8 Nordeste 0 -- -- 69
2019-09-28 10:00:00 11.1 3 Este 5 Este 0 -- -- 82
2019-09-28 09:00:00 7.5 0 Calma 3 Sudoeste 0 -- -- 92
2019-09-28 08:00:00 6.6 0 Calma 4 Sudoeste 0 -- -- 92
2019-09-28 07:00:00 6.9 0 Calma 4 Sur 0 -- -- 91
2019-09-28 06:00:00 7.3 0 Calma 4 Nordeste 0 -- -- 87
2019-09-28 05:00:00 7.6 0 Calma 4 Sudoeste 0 -- -- 86
2019-09-28 04:00:00 8.2 3 Sudoeste 4 Sudoeste 0 -- -- 85
2019-09-28 03:00:00 8.6 0 Calma 4 Oeste 0 -- -- 83
2019-09-28 02:00:00 9 0 Calma 5 Oeste 0 -- -- 81
2019-09-28 01:00:00 9.8 0 Calma 5 Sur 0 -- -- 78
2019-09-28 00:00:00 11.3 2 Nordeste 5 Oeste 0 -- -- 70
2019-09-27 23:00:00 12.5 0 Calma 3 Sudoeste 0 -- -- 62
2019-09-27 22:00:00 13.7 0 Calma 11 Norte 0 -- -- 60
2019-09-27 21:00:00 16.3 2 Este 20 Noroeste 0 -- -- 50
2019-09-27 20:00:00 18.6 10 Norte 16 Norte 0 -- -- 40
2019-09-27 19:00:00 21.8 4 Norte 15 Norte 0 -- -- 31
2019-09-27 18:00:00 23.4 8 Noroeste 19 Noroeste 0 -- -- 26
2019-09-27 17:00:00 24.6 7 Noroeste 22 Sudoeste 0 -- -- 24
2019-09-27 16:00:00 25 12 Oeste 24 Sudoeste 0 -- -- 34
2019-09-27 15:00:00 23.6 6 Norte 23 Noroeste 0 -- -- 41
2019-09-27 14:00:00 24.1 9 Sur 19 Sur 0 -- -- 40
2019-09-27 13:00:00 23.9 8 Sur 17 Sudoeste 0 -- -- 44
2019-09-27 12:00:00 22.2 9 Sudoeste 14 Sur 0 -- -- 50
2019-09-27 11:00:00 17.1 4 Este 7 Este 0 -- -- 72
2019-09-27 10:00:00 13.1 0 Calma 4 Sudeste 0 -- -- 84
2019-09-27 09:00:00 9.5 0 Calma 4 Nordeste 0 -- -- 95
2019-09-27 08:00:00 8.7 0 Calma 0 Calma 0 -- -- 93
2019-09-27 07:00:00 8.8 0 Calma 2 Sudoeste 0 -- -- 92
2019-09-27 06:00:00 9.2 0 Calma 4 Oeste 0 -- -- 90
2019-09-27 05:00:00 9.6 0 Calma 3 Sur 0 -- -- 91
2019-09-27 04:00:00 10.1 0 Calma 2 Sur 0 -- -- 89
2019-09-27 03:00:00 10.5 0 Calma 4 Sudoeste 0 -- -- 89
2019-09-27 02:00:00 11.1 0 Calma 4 Noroeste 0 -- -- 88
2019-09-27 01:00:00 11.9 0 Calma 3 Sudoeste 0 -- -- 84
2019-09-27 00:00:00 12.9 0 Calma 3 Sur 0 -- -- 80
2019-09-26 23:00:00 13.9 0 Calma 4 Noroeste 0 -- -- 78
2019-09-26 22:00:00 15.2 0 Calma 6 Este 0 -- -- 73
2019-09-26 21:00:00 16.8 3 Este 9 Noroeste 0 -- -- 70
2019-09-26 20:00:00 19.4 0 Calma 5 Nordeste 0 -- -- 59
2019-09-26 19:00:00 23.2 5 Sudoeste 11 Sudoeste 0 -- -- 45
2019-09-26 18:00:00 24.6 5 Sur 20 Sur 0 -- -- 44
2019-09-26 17:00:00 24.6 7 Sur 21 Sudoeste 0 -- -- 43
2019-09-26 16:00:00 25 10 Sur 22 Sudoeste 0 -- -- 41
2019-09-26 15:00:00 24.3 7 Sur 21 Sudoeste 0 -- -- 42
2019-09-26 14:00:00 24.1 12 Sudoeste 21 Sudoeste 0 -- -- 43
2019-09-26 13:00:00 23.1 7 Sur 16 Sudoeste 0 -- -- 47
2019-09-26 12:00:00 21.6 6 Sur 16 Sudoeste 0 -- -- 54
2019-09-26 11:00:00 17.6 3 Este 6 Este 0 -- -- 64
2019-09-26 10:00:00 13.7 2 Este 7 Nordeste 0 -- -- 80
2019-09-26 09:00:00 9.8 3 Nordeste 5 Nordeste 0 -- -- 94
2019-09-26 08:00:00 9.5 2 Nordeste 4 Este 0 -- -- 90
2019-09-26 07:00:00 10.3 0 Calma 4 Sudoeste 0 -- -- 89
2019-09-26 06:00:00 11.6 0 Calma 5 Nordeste 0 -- -- 86
2019-09-26 05:00:00 12.2 0 Calma 4 Oeste 0 -- -- 85
2019-09-26 04:00:00 12.6 0 Calma 5 Nordeste 0 -- -- 82
2019-09-26 03:00:00 13.1 0 Calma 4 Este 0 -- -- 80
2019-09-26 02:00:00 13.2 0 Calma 5 Nordeste 0 -- -- 78
2019-09-26 01:00:00 13.3 0 Calma 8 Nordeste 0 -- -- 76
2019-09-26 00:00:00 13.5 5 Noroeste 8 Noroeste 0 -- -- 72
2019-09-25 23:00:00 14.5 4 Sudeste 17 Noroeste 0 -- -- 64
2019-09-25 22:00:00 15.3 6 Noroeste 22 Oeste 0 -- -- 60
2019-09-25 21:00:00 15.2 8 Norte 24 Noroeste 0 -- -- 63
2019-09-25 20:00:00 15.2 15 Noroeste 29 Noroeste 0 -- -- 63
2019-09-25 19:00:00 15.9 18 Noroeste 33 Oeste 0 -- -- 65
2019-09-25 18:00:00 17.2 13 Noroeste 33 Oeste 0 -- -- 60
2019-09-25 17:00:00 18.3 8 Noroeste 34 Noroeste 0 -- -- 55
2019-09-25 16:00:00 19.7 11 Norte 29 Nordeste 0 -- -- 50
2019-09-25 15:00:00 19.3 14 Nordeste 29 Nordeste 0 -- -- 49
2019-09-25 14:00:00 19.2 11 Norte 28 Nordeste 0 -- -- 48
2019-09-25 13:00:00 17.9 15 Nordeste 27 Este 0 -- -- 54
2019-09-25 12:00:00 17.7 14 Nordeste 28 Nordeste 0 -- -- 54
2019-09-25 11:00:00 17.8 9 Norte 23 Noroeste 0 -- -- 52
2019-09-25 10:00:00 15.7 8 Noroeste 15 Nordeste 0 -- -- 59
2019-09-25 09:00:00 11.8 4 Nordeste 22 Noroeste 0 -- -- 86
2019-09-25 08:00:00 9.8 2 Nordeste 8 Nordeste 0 -- -- 93
2019-09-25 07:00:00 10 2 Norte 9 Noroeste 0 -- -- 91
2019-09-25 06:00:00 10.8 5 Nordeste 9 Noroeste 0 -- -- 92
2019-09-25 05:00:00 11.4 2 Nordeste 8 Este 0 -- -- 90
2019-09-25 04:00:00 12.4 5 Nordeste 22 Noroeste 0 -- -- 86
2019-09-25 03:00:00 13.8 8 Noroeste 25 Oeste 0 -- -- 82
2019-09-25 02:00:00 13.8 3 Noroeste 7 Oeste 0 -- -- 85
2019-09-25 01:00:00 15.1 3 Nordeste 9 Sur 0 -- -- 81
2019-09-25 00:00:00 15.6 7 Noroeste 17 Noroeste 0 -- -- 78
2019-09-24 23:00:00 15.5 0 Calma 10 Oeste 0 -- -- 78
2019-09-24 22:00:00 16.4 3 Nordeste 9 Norte 0 -- -- 75
2019-09-24 21:00:00 18.3 0 Calma 9 Noroeste 0 -- -- 66
2019-09-24 20:00:00 20 6 Noroeste 19 Sudoeste 0 -- -- 57
2019-09-24 19:00:00 21.8 12 Sudoeste 21 Sudoeste 0 -- -- 51
2019-09-24 18:00:00 22.9 6 Noroeste 26 Oeste 0 -- -- 47
2019-09-24 17:00:00 24.2 11 Sudoeste 23 Noroeste 0 -- -- 43
2019-09-24 16:00:00 23.7 7 Sur 18 Sudoeste 0 -- -- 43
2019-09-24 15:00:00 23.2 7 Sur 15 Sudeste 0 -- -- 43
2019-09-24 14:00:00 22.8 8 Sudoeste 24 Sudoeste 0 -- -- 45
2019-09-24 13:00:00 22.2 9 Sudoeste 24 Sudoeste 0 -- -- 43
2019-09-24 12:00:00 21.8 4 Sur 8 Sudoeste 0 -- -- 49
2019-09-24 11:00:00 17.5 3 Este 9 Nordeste 0 -- -- 63
2019-09-24 10:00:00 12.8 3 Sudeste 6 Sudeste 0 -- -- 82
2019-09-24 09:00:00 9.3 2 Este 6 Sudoeste 0 -- -- 94
2019-09-24 08:00:00 8.2 2 Norte 6 Nordeste 0 -- -- 94
2019-09-24 07:00:00 8.5 0 Calma 7 Oeste 0 -- -- 92
2019-09-24 06:00:00 9.1 0 Calma 5 Nordeste 0 -- -- 91
2019-09-24 05:00:00 9.7 2 Sudoeste 6 Nordeste 0 -- -- 90
2019-09-24 04:00:00 10.2 2 Oeste 4 Noroeste 0 -- -- 90
2019-09-24 03:00:00 10.1 0 Calma 5 Sudoeste 0 -- -- 88
2019-09-24 02:00:00 10.7 2 Nordeste 6 Noroeste 0 -- -- 86
2019-09-24 01:00:00 11.3 0 Calma 7 Nordeste 0 -- -- 82
2019-09-24 00:00:00 11.3 0 Calma 6 Nordeste 0 -- -- 81
2019-09-23 23:00:00 12.1 0 Calma 4 Sur 0 -- -- 75
2019-09-23 22:00:00 13.6 2 Sur 5 Este 0 -- -- 70
2019-09-23 21:00:00 15.4 6 Nordeste 13 Norte 0 -- -- 57
2019-09-23 20:00:00 16.7 6 Norte 12 Norte 0 -- -- 58
2019-09-23 19:00:00 19.3 0 Calma 6 Sur 0 -- -- 51
2019-09-23 18:00:00 20.2 4 Sur 15 Sudoeste 0 -- -- 41
2019-09-23 17:00:00 20.7 3 Sur 13 Sudeste 0 -- -- 38
2019-09-23 16:00:00 20.5 5 Sur 14 Sudoeste 0 -- -- 40
2019-09-23 15:00:00 19.8 8 Sur 18 Sudoeste 0 -- -- 44
2019-09-23 14:00:00 19.2 8 Sur 18 Sudoeste 0 -- -- 47
2019-09-23 13:00:00 19.6 7 Sur 13 Sur 0 -- -- 46
2019-09-23 12:00:00 17.3 6 Sur 10 Sur 0 -- -- 56
2019-09-23 11:00:00 12.9 3 Sudeste 6 Este 0 -- -- 74
2019-09-23 10:00:00 8.8 0 Calma 5 Este 0 -- -- 94
2019-09-23 09:00:00 6.1 0 Calma 4 Sudoeste 0 -- -- 96
2019-09-23 08:00:00 5.4 0 Calma 4 Sudoeste 0 -- -- 95
2019-09-23 07:00:00 5.5 0 Calma 5 Sudoeste 0 -- -- 95
2019-09-23 06:00:00 5.1 0 Calma 4 Nordeste 0 -- -- 94
2019-09-23 05:00:00 5.9 4 Oeste 7 Oeste 0 -- -- 94
2019-09-23 04:00:00 6.5 0 Calma 5 Oeste 0 -- -- 93
2019-09-23 03:00:00 7.2 3 Oeste 6 Sudoeste 0 -- -- 93
2019-09-23 02:00:00 7.9 4 Sudoeste 8 Sur 0 -- -- 91
2019-09-23 01:00:00 8.4 3 Sur 10 Sudoeste 0 -- -- 91
2019-09-23 00:00:00 9.2 6 Sudoeste 12 Sudoeste 0 -- -- 90
2019-09-22 23:00:00 9.9 3 Sur 9 Sudoeste 0 -- -- 89
2019-09-22 22:00:00 11.1 2 Sudeste 6 Nordeste 0 -- -- 83
2019-09-22 21:00:00 12.9 4 Nordeste 16 Norte 0 -- -- 73
2019-09-22 20:00:00 15 6 Norte 13 Noroeste 0 -- -- 65
2019-09-22 19:00:00 17.4 10 Noroeste 17 Noroeste 0 -- -- 59
2019-09-22 18:00:00 18.6 8 Oeste 19 Noroeste 0 -- -- 52
2019-09-22 17:00:00 18.2 5 Norte 17 Sudeste 0 -- -- 55
2019-09-22 16:00:00 18.7 4 Sudoeste 12 Sudoeste 0 -- -- 62
2019-09-22 15:00:00 17.6 3 Sudoeste 11 Oeste 0 -- -- 64
2019-09-22 14:00:00 17.3 4 Sudoeste 7 Sudoeste 0 -- -- 74
2019-09-22 13:00:00 16.3 2 Oeste 8 Sur 0 -- -- 80
2019-09-22 12:00:00 14.5 7 Norte 29 Norte 4.4 -- -- 80
2019-09-22 11:00:00 16.8 8 Sur 16 Sur 0 -- -- 91
2019-09-22 10:00:00 15.7 7 Sudoeste 16 Sudoeste 1.2 -- -- 94
2019-09-22 09:00:00 15.5 6 Sudoeste 18 Sudoeste 3.8 -- -- 94
2019-09-22 08:00:00 15.5 12 Oeste 18 Oeste 1.2 -- -- 92
2019-09-22 07:00:00 15.5 9 Oeste 17 Oeste 1 -- -- 92
2019-09-22 06:00:00 15.6 8 Sudoeste 19 Sudoeste 0 -- -- 91
2019-09-22 05:00:00 15.6 0 Calma 14 Oeste 0.8 -- -- 91
2019-09-22 04:00:00 15.4 5 Oeste 14 Sudoeste 0.4 -- -- 93
2019-09-22 03:00:00 15.3 0 Calma 8 Sudoeste 0 -- -- 92
2019-09-22 02:00:00 15.3 0 Calma 6 Nordeste 0 -- -- 91
2019-09-22 01:00:00 15.6 2 Sudeste 15 Sudoeste 0.4 -- -- 89
2019-09-22 00:00:00 15.9 5 Sudoeste 16 Sudoeste 0 -- -- 86
2019-09-21 23:00:00 16.3 7 Oeste 16 Sur 1 -- -- 82
2019-09-21 22:00:00 18.4 12 Oeste 23 Oeste 0 -- -- 68
2019-09-21 21:00:00 19 4 Sudoeste 11 Noroeste 0 -- -- 63
2019-09-21 20:00:00 19.6 4 Sudoeste 17 Sudeste 0 -- -- 60
2019-09-21 19:00:00 20.7 8 Sur 24 Sudoeste 0 -- -- 55
2019-09-21 18:00:00 21.3 13 Sudoeste 26 Sudoeste 0 -- -- 52
2019-09-21 17:00:00 21.3 11 Sur 31 Sur 0 -- -- 52
2019-09-21 16:00:00 22.3 14 Sur 32 Sur 0 -- -- 53
2019-09-21 15:00:00 21.6 15 Sudoeste 29 Sudoeste 0 -- -- 58
2019-09-21 14:00:00 20.6 15 Sudoeste 26 Sudoeste 0 -- -- 61
2019-09-21 13:00:00 19.3 9 Sur 26 Sudoeste 0 -- -- 64
2019-09-21 12:00:00 17.6 11 Sudoeste 25 Sudoeste 0 -- -- 78
2019-09-21 11:00:00 15.1 4 Oeste 19 Sudoeste 0.6 -- -- 90
2019-09-21 10:00:00 15.5 10 Sudoeste 25 Sur 0 -- -- 82
2019-09-21 09:00:00 15.4 11 Sudoeste 26 Sudoeste 0 -- -- 83
2019-09-21 08:00:00 14.8 9 Sudoeste 26 Sur 0.6 -- -- 86
2019-09-21 07:00:00 15.1 11 Sudeste 19 Sudeste 0.4 -- -- 84
2019-09-21 06:00:00 14.3 5 Este 18 Sudoeste 0.4 -- -- 91
2019-09-21 05:00:00 14.5 5 Oeste 9 Oeste 0 -- -- 91
2019-09-21 04:00:00 14.5 4 Nordeste 15 Sudeste 0 -- -- 92
2019-09-21 03:00:00 14.9 3 Sudoeste 12 Oeste 3 -- -- 93
2019-09-21 02:00:00 15.4 5 Noroeste 11 Noroeste 3.4 -- -- 89
2019-09-21 01:00:00 16.5 4 Sudoeste 29 Sudoeste 1.4 -- -- 83
2019-09-21 00:00:00 19.2 17 Sudoeste 32 Sudoeste 0 -- -- 62
2019-09-20 23:00:00 19.7 8 Sur 26 Sudoeste 0 -- -- 64
2019-09-20 22:00:00 20.7 8 Sur 30 Sudoeste 0 -- -- 57
2019-09-20 21:00:00 21.6 16 Sudeste 35 Sur 0 -- -- 51
2019-09-20 20:00:00 22.6 13 Sur 35 Sudeste 0 -- -- 49
2019-09-20 19:00:00 23.7 14 Sur 29 Sur 0 -- -- 45
2019-09-20 18:00:00 24.3 10 Sur 30 Sudeste 0 -- -- 44
2019-09-20 17:00:00 24.2 10 Sur 30 Sudoeste 0 -- -- 45
2019-09-20 16:00:00 24.5 14 Sur 39 Sudoeste 0 -- -- 42
2019-09-20 15:00:00 25.6 16 Sur 42 Sudoeste 0 -- -- 40
2019-09-20 14:00:00 24.3 17 Sudeste 39 Sudeste 0 -- -- 44
2019-09-20 13:00:00 24.3 19 Sur 40 Sudoeste 0 -- -- 43
2019-09-20 12:00:00 23.5 15 Sudeste 28 Sudeste 0 -- -- 46
2019-09-20 11:00:00 21.3 7 Sur 13 Sudoeste 0 -- -- 60
2019-09-20 10:00:00 14.2 3 Este 5 Este 0 -- -- 86
2019-09-20 09:00:00 12.3 0 Calma 8 Sudoeste 0 -- -- 91
2019-09-20 08:00:00 11.2 0 Calma 4 Nordeste 0 -- -- 90
2019-09-20 07:00:00 11.5 0 Calma 5 Sudoeste 0 -- -- 90
2019-09-20 06:00:00 12 4 Nordeste 14 Norte 0 -- -- 89
2019-09-20 05:00:00 12.4 4 Noroeste 12 Nordeste 0 -- -- 90
2019-09-20 04:00:00 12.6 3 Sudoeste 12 Norte 0 -- -- 88
2019-09-20 03:00:00 12.9 2 Nordeste 9 Norte 0 -- -- 88
2019-09-20 02:00:00 13.4 2 Norte 7 Nordeste 0 -- -- 85
2019-09-20 01:00:00 14.3 2 Oeste 4 Nordeste 0 -- -- 83
2019-09-20 00:00:00 15.2 2 Sudoeste 8 Nordeste 0 -- -- 79
2019-09-19 23:00:00 16.6 2 Sur 13 Nordeste 0 -- -- 75
2019-09-19 22:00:00 17.5 8 Nordeste 20 Nordeste 0 -- -- 72
2019-09-19 21:00:00 18.1 9 Norte 20 Noroeste 0 -- -- 69
2019-09-19 20:00:00 19.1 12 Noroeste 19 Norte 0 -- -- 67
2019-09-19 19:00:00 20.6 10 Norte 25 Norte 0 -- -- 62
2019-09-19 18:00:00 19.5 10 Norte 27 Norte 0 -- -- 65
2019-09-19 17:00:00 25.9 12 Sur 28 Sudoeste 0 -- -- 42
2019-09-19 16:00:00 26.3 12 Sudoeste 33 Sudoeste 0 -- -- 41
2019-09-19 15:00:00 26.5 15 Sudoeste 39 Sudoeste 0 -- -- 40
2019-09-19 14:00:00 26 8 Sur 19 Sudoeste 0 -- -- 39
2019-09-19 13:00:00 25.2 5 Sur 22 Oeste 0 -- -- 42
2019-09-19 12:00:00 24.3 11 Sudoeste 20 Sudoeste 0 -- -- 46
2019-09-19 11:00:00 19.5 6 Este 10 Nordeste 0 -- -- 60
2019-09-19 10:00:00 15.2 3 Este 5 Sudeste 0 -- -- 77
2019-09-19 09:00:00 11 0 Calma 4 Sudoeste 0 -- -- 91
2019-09-19 08:00:00 9.9 0 Calma 4 Noroeste 0 -- -- 91
2019-09-19 07:00:00 10.1 0 Calma 4 Sudoeste 0 -- -- 90
2019-09-19 06:00:00 10.4 0 Calma 4 Sudoeste 0 -- -- 90
2019-09-19 05:00:00 11 0 Calma -- -- 0 -- -- 89
2019-09-19 04:00:00 11.5 0 Calma 4 Oeste 0 -- -- 89
2019-09-19 03:00:00 12.4 0 Calma -- -- 0 -- -- 86
2019-09-19 02:00:00 13.2 0 Calma -- -- 0 -- -- 82
2019-09-19 01:00:00 14.3 0 Calma 4 Norte 0 -- -- 80
2019-09-19 00:00:00 15.7 2 Noroeste 10 Norte -- -- -- 75
2019-09-18 23:00:00 16.7 0 Calma 8 Noroeste 0 -- -- 71
2019-09-18 22:00:00 18.3 4 Norte 13 Norte 0 -- -- 66
2019-09-18 21:00:00 19.5 9 Norte 14 Norte 0 -- -- 61
2019-09-18 20:00:00 20.8 3 Norte 22 Nordeste 0 -- -- 53
2019-09-18 19:00:00 21.7 8 Norte 26 Nordeste 0 -- -- 51
2019-09-18 18:00:00 23.4 10 Norte 27 Norte 0 -- -- 49
2019-09-18 17:00:00 24.2 4 Sur 28 Sudoeste 0 -- -- 40
2019-09-18 16:00:00 26.2 13 Sudoeste 26 Sudoeste 0 -- -- 41
2019-09-18 15:00:00 27.1 7 Sur 24 Sudoeste 0 -- -- 39
2019-09-18 14:00:00 26.5 7 Sudoeste 23 Sur 0 -- -- 43
2019-09-18 13:00:00 25.7 10 Sudoeste 21 Sur 0 -- -- 46
2019-09-18 12:00:00 24 6 Sudeste 20 Sudoeste 0 -- -- 46
2019-09-18 11:00:00 20.4 5 Nordeste 10 Nordeste 0 -- -- 68
2019-09-18 10:00:00 15.8 0 Calma 12 Norte 0 -- -- 87
2019-09-18 09:00:00 15.1 4 Noroeste 15 Norte 0 -- -- 85
2019-09-18 08:00:00 13.7 4 Norte 8 Sudoeste 0 -- -- 91
2019-09-18 07:00:00 13.9 2 Nordeste 5 Nordeste 0 -- -- 87
2019-09-18 06:00:00 15.2 0 Calma 18 Nordeste 0 -- -- 83
2019-09-18 05:00:00 16.2 9 Norte 18 Norte 0 -- -- 79
2019-09-18 04:00:00 17.4 7 Norte 23 Nordeste 0 -- -- 77
2019-09-18 03:00:00 17.8 8 Nordeste 17 Norte 0 -- -- 77
2019-09-18 02:00:00 17.2 2 Este 11 Noroeste 0 -- -- 78
2019-09-18 01:00:00 17.1 4 Norte 6 Norte 0 -- -- 77
2019-09-18 00:00:00 18 2 Oeste 7 Noroeste 0 -- -- 74
2019-09-17 23:00:00 18.9 5 Sudoeste 15 Norte 0 -- -- 69
2019-09-17 22:00:00 20.7 5 Norte 14 Noroeste 0 -- -- 64
2019-09-17 21:00:00 21.7 5 Nordeste 19 Noroeste 0 -- -- 61
2019-09-15 18:00:00 19.4 6 Oeste 29 Oeste 1.2 -- -- 76
2019-09-15 17:00:00 24.4 14 Sudoeste 35 Sudoeste 0 -- -- 44
2019-09-15 16:00:00 28.2 14 Sudoeste 30 Sudoeste 0 -- -- 37
2019-09-15 15:00:00 27.8 17 Sudoeste 28 Sudoeste 0 -- -- 35
2019-09-15 14:00:00 27.6 13 Sudoeste 30 Sudoeste 0 -- -- 39
2019-09-15 13:00:00 25.8 8 Sudoeste 17 Sudoeste 0 -- -- 44
2019-09-15 12:00:00 22.2 5 Este 9 Este 0 -- -- 58
2019-09-15 11:00:00 18.6 4 Sur 8 Este 0 -- -- 74
2019-09-15 10:00:00 15.8 2 Sudoeste 20 Nordeste 0 -- -- 81
2019-09-15 09:00:00 14.2 3 Noroeste 6 Nordeste 0 -- -- 84
2019-09-15 08:00:00 13.2 4 Sudoeste 13 Sudoeste 0 -- -- 87
2019-09-15 07:00:00 13.8 3 Sudoeste 8 Noroeste 0 -- -- 85
2019-09-15 06:00:00 14.2 4 Oeste 11 Nordeste 0 -- -- 83
2019-09-15 05:00:00 14.2 3 Sudeste 7 Nordeste 0 -- -- 81
2019-09-15 04:00:00 14 4 Nordeste 6 Oeste 0 -- -- 79
2019-09-15 03:00:00 13.9 3 Sudoeste 6 Sudoeste 0 -- -- 79
2019-09-15 02:00:00 14 2 Noroeste 7 Sudoeste 0 -- -- 77
2019-09-15 01:00:00 14.1 2 Oeste 5 Sudoeste 0 -- -- 76
2019-09-15 00:00:00 15.3 2 Sudoeste 5 Sur 0 -- -- 72